createdAt,value
2023-02-04T00:00:20.620Z,7.43
2023-02-04T00:02:47.737Z,7.70
2023-02-04T00:05:17.129Z,8.13
2023-02-04T00:07:43.968Z,8.23
2023-02-04T00:10:11.152Z,7.23
2023-02-04T00:12:38.000Z,6.80
2023-02-04T00:15:06.035Z,8.23
2023-02-04T00:17:32.934Z,7.93
2023-02-04T00:19:59.717Z,8.47
2023-02-04T00:22:28.806Z,9.80
2023-02-04T00:24:55.771Z,6.90
2023-02-04T00:27:23.197Z,8.63
2023-02-04T00:29:50.003Z,10.57
2023-02-04T00:32:16.860Z,9.27
2023-02-04T00:34:43.582Z,9.97
2023-02-04T00:37:10.371Z,6.33
2023-02-04T00:39:37.238Z,7.03
2023-02-04T00:42:05.658Z,8.23
2023-02-04T00:44:32.717Z,10.83
2023-02-04T00:46:59.686Z,7.30
2023-02-04T00:49:26.494Z,9.20
2023-02-04T00:51:53.208Z,7.53
2023-02-04T00:54:20.166Z,10.07
2023-02-04T00:56:46.960Z,8.47
2023-02-04T00:59:13.737Z,6.20
2023-02-04T01:01:40.502Z,6.13
2023-02-04T01:04:07.458Z,10.47
2023-02-04T01:06:34.784Z,11.97
2023-02-04T01:09:01.724Z,10.17
2023-02-04T01:11:30.927Z,9.13
2023-02-04T01:13:58.202Z,9.57
2023-02-04T01:16:25.091Z,7.40
2023-02-04T01:18:51.863Z,8.60
2023-02-04T01:21:18.549Z,9.63
2023-02-04T01:23:45.291Z,8.70
2023-02-04T01:26:12.001Z,11.20
2023-02-04T01:28:38.728Z,13.20
2023-02-04T01:31:05.668Z,10.27
2023-02-04T01:33:32.631Z,7.50
2023-02-04T01:35:59.440Z,7.33
2023-02-04T01:38:26.222Z,9.17
2023-02-04T01:40:53.622Z,11.03
2023-02-04T01:43:22.436Z,10.50
2023-02-04T01:45:50.659Z,7.77
2023-02-04T01:48:21.741Z,6.27
2023-02-04T01:50:57.116Z,10.30
2023-02-04T01:53:26.492Z,8.57
2023-02-04T01:55:53.529Z,6.53
2023-02-04T01:58:20.408Z,10.83
2023-02-04T02:00:47.217Z,10.23
2023-02-04T02:03:14.102Z,12.63
2023-02-04T02:05:49.057Z,9.73
2023-02-04T02:08:17.236Z,12.27
2023-02-04T02:10:47.610Z,11.63
2023-02-04T02:13:18.896Z,10.27
2023-02-04T02:15:47.224Z,20.80
2023-02-04T02:18:14.756Z,11.67
2023-02-04T02:20:45.090Z,6.77
2023-02-04T02:24:00.885Z,6.53
2023-02-04T02:26:28.019Z,7.30
2023-02-04T02:28:55.414Z,11.67
2023-02-04T02:31:23.705Z,8.30
2023-02-04T02:33:50.745Z,9.90
2023-02-04T02:36:17.826Z,10.10
2023-02-04T02:38:44.721Z,8.13
2023-02-04T02:41:11.561Z,7.07
2023-02-04T02:43:39.376Z,7.43
2023-02-04T02:46:06.798Z,4.97
2023-02-04T02:48:33.732Z,10.07
2023-02-04T02:51:00.563Z,5.23
2023-02-04T02:53:27.380Z,10.13
2023-02-04T02:55:54.178Z,10.80
2023-02-04T02:58:33.755Z,8.03
2023-02-04T03:01:06.040Z,7.93
2023-02-04T03:03:37.925Z,10.33
2023-02-04T03:06:15.206Z,5.77
2023-02-04T03:08:44.212Z,12.93
2023-02-04T03:11:11.120Z,9.97
2023-02-04T03:13:38.601Z,16.23
2023-02-04T03:16:08.049Z,10.20
2023-02-04T03:18:36.483Z,8.27
2023-02-04T03:21:05.724Z,8.30
2023-02-04T03:23:36.764Z,5.57
2023-02-04T03:26:05.244Z,8.60
2023-02-04T03:28:32.890Z,5.47
2023-02-04T03:31:00.415Z,8.73
2023-02-04T03:33:31.800Z,6.50
2023-02-04T03:35:59.271Z,11.43
2023-02-04T03:38:26.980Z,12.13
2023-02-04T03:40:53.731Z,8.67
2023-02-04T03:43:20.513Z,12.50
2023-02-04T03:45:47.325Z,10.17
2023-02-04T03:48:14.152Z,10.83
2023-02-04T03:50:40.914Z,6.43
2023-02-04T03:53:07.933Z,7.47
2023-02-04T03:55:35.879Z,9.10
2023-02-04T03:58:04.163Z,12.13
2023-02-04T04:00:32.363Z,6.23
2023-02-04T04:03:00.245Z,15.13
2023-02-04T04:05:28.491Z,14.30
2023-02-04T04:07:55.293Z,17.53
2023-02-04T04:10:22.000Z,9.57
2023-02-04T04:12:48.744Z,6.47
2023-02-04T04:15:15.582Z,15.53
2023-02-04T04:17:42.334Z,8.87
2023-02-04T04:20:10.024Z,11.40
2023-02-04T04:22:36.731Z,7.03
2023-02-04T04:25:03.788Z,19.70
2023-02-04T04:27:30.603Z,6.00
2023-02-04T04:29:57.431Z,6.53
2023-02-04T04:32:24.469Z,14.37
2023-02-04T04:34:51.258Z,11.57
2023-02-04T04:37:18.079Z,9.73
2023-02-04T04:39:44.822Z,9.40
2023-02-04T04:42:11.561Z,10.00
2023-02-04T04:44:38.357Z,7.20
2023-02-04T04:47:05.058Z,6.33
2023-02-04T04:49:32.066Z,9.87
2023-02-04T04:51:58.766Z,10.67
2023-02-04T04:54:25.639Z,10.50
2023-02-04T04:56:52.323Z,6.27
2023-02-04T04:59:19.066Z,10.70
2023-02-04T05:01:45.819Z,6.57
2023-02-04T05:04:12.568Z,14.73
2023-02-04T05:06:39.373Z,14.63
2023-02-04T05:09:06.191Z,8.63
2023-02-04T05:11:32.969Z,10.57
2023-02-04T05:13:59.743Z,12.23
2023-02-04T05:16:26.630Z,8.97
2023-02-04T05:18:53.781Z,8.23
2023-02-04T05:21:20.539Z,9.87
2023-02-04T05:23:47.255Z,10.43
2023-02-04T05:26:22.178Z,6.03
2023-02-04T05:28:56.184Z,7.30
2023-02-04T05:31:23.113Z,10.73
2023-02-04T05:33:49.930Z,12.33
2023-02-04T05:36:17.738Z,9.60
2023-02-04T05:38:44.524Z,10.00
2023-02-04T05:41:11.511Z,11.17
2023-02-04T05:43:38.894Z,9.57
2023-02-04T05:46:05.902Z,12.07
2023-02-04T05:48:32.842Z,8.00
2023-02-04T05:50:59.544Z,10.10
2023-02-04T05:53:26.397Z,8.80
2023-02-04T05:55:53.125Z,7.03
2023-02-04T05:58:19.874Z,9.23
2023-02-04T06:00:46.617Z,7.03
2023-02-04T06:03:14.487Z,10.57
2023-02-04T06:05:41.391Z,12.87
2023-02-04T06:08:08.159Z,6.20
2023-02-04T06:10:34.955Z,13.60
2023-02-04T06:13:01.752Z,9.97
2023-02-04T06:15:28.482Z,9.03
2023-02-04T06:17:55.264Z,10.67
2023-02-04T06:20:22.052Z,10.80
2023-02-04T06:22:51.666Z,12.13
2023-02-04T06:25:18.891Z,17.63
2023-02-04T06:27:46.992Z,17.37
2023-02-04T06:30:14.747Z,10.53
2023-02-04T06:32:41.594Z,10.13
2023-02-04T06:35:09.603Z,10.30
2023-02-04T06:37:36.396Z,10.87
2023-02-04T06:40:03.145Z,9.23
2023-02-04T06:42:29.833Z,13.80
2023-02-04T06:44:56.552Z,14.03
2023-02-04T06:47:23.376Z,14.43
2023-02-04T06:49:50.088Z,13.00
2023-02-04T06:52:16.810Z,14.33
2023-02-04T06:54:43.547Z,10.40
2023-02-04T06:57:11.113Z,15.57
2023-02-04T06:59:40.311Z,15.40
2023-02-04T07:02:08.341Z,14.13
2023-02-04T07:04:35.408Z,15.17
2023-02-04T07:07:02.520Z,15.37
2023-02-04T07:09:29.605Z,10.50
2023-02-04T07:11:56.309Z,12.20
2023-02-04T07:14:23.050Z,13.07
2023-02-04T07:16:49.785Z,13.30
2023-02-04T07:19:16.590Z,12.60
2023-02-04T07:21:43.340Z,14.53
2023-02-04T07:24:10.065Z,10.50
2023-02-04T07:26:36.745Z,14.53
2023-02-04T07:29:03.479Z,13.13
2023-02-04T07:31:30.260Z,18.00
2023-02-04T07:33:57.019Z,15.93
2023-02-04T07:36:23.974Z,19.70
2023-02-04T07:38:50.772Z,17.97
2023-02-04T07:41:17.615Z,13.77
2023-02-04T07:43:44.557Z,16.03
2023-02-04T07:46:11.305Z,15.80
2023-02-04T07:48:38.030Z,19.57
2023-02-04T07:51:04.913Z,19.07
2023-02-04T07:53:31.658Z,16.10
2023-02-04T07:55:58.376Z,18.40
2023-02-04T07:58:25.171Z,17.37
2023-02-04T08:00:51.908Z,14.63
2023-02-04T08:03:18.741Z,13.87
2023-02-04T08:05:45.439Z,18.50
2023-02-04T08:08:12.324Z,20.83
2023-02-04T08:10:39.095Z,21.53
2023-02-04T08:13:05.806Z,23.60
2023-02-04T08:15:32.837Z,25.67
2023-02-04T08:17:59.656Z,20.67
2023-02-04T08:20:26.455Z,32.10
2023-02-04T08:22:53.222Z,19.40
2023-02-04T08:25:19.975Z,21.17
2023-02-04T08:27:46.776Z,22.53
2023-02-04T08:30:13.892Z,29.20
2023-02-04T08:32:40.739Z,26.17
2023-02-04T08:35:08.811Z,19.43
2023-02-04T08:37:35.552Z,26.63
2023-02-04T08:40:02.263Z,27.23
2023-02-04T08:42:29.304Z,25.30
2023-02-04T08:44:56.017Z,28.93
2023-02-04T08:47:23.030Z,26.90
2023-02-04T08:49:49.733Z,22.63
2023-02-04T08:52:16.463Z,27.53
2023-02-04T08:54:43.184Z,22.80
2023-02-04T08:57:09.878Z,29.30
2023-02-04T08:59:36.688Z,29.20
2023-02-04T09:02:03.923Z,33.57
2023-02-04T09:04:30.698Z,29.63
2023-02-04T09:06:57.407Z,28.57
2023-02-04T09:09:26.152Z,31.37
2023-02-04T09:11:53.118Z,25.07
2023-02-04T09:14:19.841Z,26.93
2023-02-04T09:16:46.764Z,24.40
2023-02-04T09:19:16.296Z,19.43
2023-02-04T09:21:43.003Z,17.47
2023-02-04T09:24:09.728Z,18.53
2023-02-04T09:26:36.651Z,23.60
2023-02-04T09:29:03.352Z,24.40
2023-02-04T09:31:30.172Z,20.03
2023-02-04T09:33:57.028Z,21.47
2023-02-04T09:36:28.351Z,20.43
2023-02-04T09:38:55.236Z,19.83
2023-02-04T09:41:22.317Z,26.30
2023-02-04T09:43:50.104Z,22.50
2023-02-04T09:46:25.374Z,21.43
2023-02-04T09:48:52.577Z,27.90
2023-02-04T09:51:27.494Z,20.40
2023-02-04T09:54:19.817Z,22.87
2023-02-04T09:56:48.016Z,22.97
2023-02-04T09:59:19.936Z,22.27
2023-02-04T10:01:56.299Z,25.93
2023-02-04T10:04:24.134Z,16.87
2023-02-04T10:06:50.977Z,17.53
2023-02-04T10:09:18.509Z,20.23
2023-02-04T10:11:48.556Z,23.70
2023-02-04T10:14:22.625Z,22.03
2023-02-04T10:17:01.540Z,22.77
2023-02-04T10:19:31.132Z,24.00
2023-02-04T10:21:58.487Z,18.70
2023-02-04T10:24:28.147Z,22.17
2023-02-04T10:27:06.000Z,21.30
2023-02-04T10:29:32.761Z,37.63
2023-02-04T10:31:59.476Z,21.53
2023-02-04T10:34:39.865Z,22.97
2023-02-04T10:37:22.654Z,21.23
2023-02-04T10:39:49.746Z,25.90
2023-02-04T10:42:33.132Z,22.17
2023-02-04T10:45:00.010Z,19.50
2023-02-04T10:47:31.349Z,22.60
2023-02-04T10:50:14.866Z,21.37
2023-02-04T10:53:34.808Z,18.33
2023-02-04T10:56:02.567Z,17.17
2023-02-04T10:58:31.938Z,19.10
2023-02-04T11:00:59.230Z,21.87
2023-02-04T11:03:30.787Z,22.33
2023-02-04T11:06:01.184Z,26.87
2023-02-04T11:08:35.358Z,19.53
2023-02-04T11:11:16.685Z,19.47
2023-02-04T11:13:49.487Z,23.30
2023-02-04T11:16:19.053Z,18.47
2023-02-04T11:18:54.955Z,18.50
2023-02-04T11:21:31.934Z,16.97
2023-02-04T11:24:13.793Z,29.67
2023-02-04T11:26:47.412Z,21.73
2023-02-04T11:29:26.210Z,18.83
2023-02-04T11:31:52.934Z,18.52
2023-02-04T11:34:19.597Z,19.45
2023-02-04T11:37:15.104Z,16.48
2023-02-04T11:39:50.477Z,21.27
2023-02-04T11:42:32.392Z,15.98
2023-02-04T11:45:22.976Z,16.80
2023-02-04T11:47:51.818Z,15.13
2023-02-04T11:50:33.364Z,13.70
2023-02-04T11:53:02.099Z,14.55
2023-02-04T11:55:36.005Z,14.18
2023-02-04T11:58:03.612Z,14.20
2023-02-04T12:00:33.280Z,16.13
2023-02-04T12:03:11.900Z,15.23
2023-02-04T12:05:42.673Z,17.75
2023-02-04T12:08:23.546Z,13.02
2023-02-04T12:11:25.821Z,13.93
2023-02-04T12:13:56.451Z,11.02
2023-02-04T12:16:24.551Z,13.63
2023-02-04T12:18:52.066Z,14.60
2023-02-04T12:21:19.365Z,14.25
2023-02-04T12:23:46.174Z,16.60
2023-02-04T12:26:13.275Z,15.97
2023-02-04T12:28:40.022Z,15.73
2023-02-04T12:31:06.937Z,15.40
2023-02-04T12:33:33.776Z,13.47
2023-02-04T12:36:00.557Z,19.63
2023-02-04T12:38:28.187Z,14.03
2023-02-04T12:40:54.943Z,16.13
2023-02-04T12:43:21.726Z,16.97
2023-02-04T12:45:49.791Z,14.53
2023-02-04T12:48:16.833Z,16.63
2023-02-04T12:50:43.756Z,14.40
2023-02-04T12:53:10.548Z,15.30
2023-02-04T12:55:37.383Z,12.93
2023-02-04T12:58:04.917Z,15.07
2023-02-04T13:00:31.738Z,14.23
2023-02-04T13:03:01.335Z,12.83
2023-02-04T13:05:28.519Z,15.63
2023-02-04T13:07:55.334Z,13.10
2023-02-04T13:10:23.925Z,15.10
2023-02-04T13:12:51.555Z,14.87
2023-02-04T13:15:18.500Z,15.13
2023-02-04T13:17:45.315Z,12.07
2023-02-04T13:20:12.808Z,14.03
2023-02-04T13:22:39.651Z,19.03
2023-02-04T13:25:07.153Z,13.77
2023-02-04T13:27:34.002Z,14.33
2023-02-04T13:30:00.754Z,19.03
2023-02-04T13:32:27.573Z,16.37
2023-02-04T13:34:54.297Z,13.13
2023-02-04T13:37:21.032Z,14.57
2023-02-04T13:39:47.838Z,12.73
2023-02-04T13:42:14.599Z,14.50
2023-02-04T13:44:41.313Z,15.93
2023-02-04T13:47:08.024Z,14.70
2023-02-04T13:49:34.881Z,13.47
2023-02-04T13:52:01.610Z,16.97
2023-02-04T13:54:28.489Z,13.23
2023-02-04T13:56:55.258Z,15.33
2023-02-04T13:59:21.983Z,12.00
2023-02-04T14:01:48.797Z,15.87
2023-02-04T14:04:15.597Z,13.67
2023-02-04T14:06:44.965Z,15.63
2023-02-04T14:09:12.487Z,16.87
2023-02-04T14:11:40.210Z,18.17
2023-02-04T14:14:07.595Z,17.07
2023-02-04T14:16:36.338Z,17.23
2023-02-04T14:19:05.232Z,17.37
2023-02-04T14:21:32.229Z,18.53
2023-02-04T14:23:59.167Z,14.97
2023-02-04T14:26:25.886Z,14.37
2023-02-04T14:28:52.674Z,15.57
2023-02-04T14:31:19.723Z,15.10
2023-02-04T14:33:48.072Z,17.83
2023-02-04T14:36:16.722Z,15.57
2023-02-04T14:38:43.437Z,23.03
2023-02-04T14:41:11.379Z,13.33
2023-02-04T14:43:38.058Z,14.87
2023-02-04T14:46:05.686Z,14.60
2023-02-04T14:48:32.639Z,18.13
2023-02-04T14:50:59.428Z,15.90
2023-02-04T14:53:26.216Z,18.93
2023-02-04T14:55:53.137Z,19.27
2023-02-04T14:58:19.894Z,12.97
2023-02-04T15:00:47.036Z,14.67
2023-02-04T15:03:13.758Z,16.23
2023-02-04T15:05:40.624Z,16.80
2023-02-04T15:08:07.405Z,22.93
2023-02-04T15:10:34.381Z,13.43
2023-02-04T15:13:01.377Z,15.97
2023-02-04T15:15:28.162Z,19.77
2023-02-04T15:17:54.942Z,18.40
2023-02-04T15:20:21.680Z,16.77
2023-02-04T15:22:51.784Z,12.53
2023-02-04T15:25:19.231Z,18.77
2023-02-04T15:27:46.026Z,18.53
2023-02-04T15:30:15.246Z,13.47
2023-02-04T15:32:42.976Z,18.40
2023-02-04T15:35:09.894Z,17.40
2023-02-04T15:37:36.712Z,17.80
2023-02-04T15:40:04.589Z,19.30
2023-02-04T15:42:31.425Z,16.43
2023-02-04T15:44:58.114Z,22.43
2023-02-04T15:47:24.814Z,18.57
2023-02-04T15:49:51.536Z,19.27
2023-02-04T15:52:24.618Z,26.33
2023-02-04T15:54:52.386Z,14.33
2023-02-04T15:57:19.118Z,22.10
2023-02-04T15:59:45.854Z,15.50
2023-02-04T16:02:12.649Z,20.47
2023-02-04T16:04:40.443Z,22.43
2023-02-04T16:07:08.293Z,19.17
2023-02-04T16:09:35.834Z,17.53
2023-02-04T16:12:02.946Z,18.53
2023-02-04T16:14:29.801Z,17.67
2023-02-04T16:16:56.521Z,19.20
2023-02-04T16:19:23.371Z,17.07
2023-02-04T16:21:50.096Z,16.67
2023-02-04T16:24:18.423Z,17.53
2023-02-04T16:26:46.051Z,15.97
2023-02-04T16:29:12.843Z,21.50
2023-02-04T16:31:39.607Z,23.27
2023-02-04T16:34:06.377Z,21.07
2023-02-04T16:36:33.368Z,15.67
2023-02-04T16:39:00.235Z,25.70
2023-02-04T16:41:27.054Z,21.80
2023-02-04T16:43:53.779Z,22.17
2023-02-04T16:46:20.725Z,16.27
2023-02-04T16:48:47.419Z,19.00
2023-02-04T16:51:14.149Z,23.02
2023-02-04T16:53:40.940Z,23.67
2023-02-04T16:56:07.978Z,14.23
2023-02-04T16:58:34.709Z,17.23
2023-02-04T17:01:01.494Z,20.67
2023-02-04T17:03:28.458Z,22.30
2023-02-04T17:05:55.223Z,24.37
2023-02-04T17:08:22.237Z,14.93
2023-02-04T17:11:08.353Z,21.73
2023-02-04T17:13:35.143Z,21.77
2023-02-04T17:16:02.291Z,21.90
2023-02-04T17:18:31.712Z,24.97
2023-02-04T17:20:59.462Z,18.97
2023-02-04T17:23:26.940Z,19.30
2023-02-04T17:25:54.021Z,23.90
2023-02-04T17:28:20.891Z,26.03
2023-02-04T17:30:47.738Z,27.47
2023-02-04T17:33:14.500Z,26.43
2023-02-04T17:35:41.231Z,19.03
2023-02-04T17:38:08.026Z,24.90
2023-02-04T17:40:34.830Z,23.90
2023-02-04T17:43:01.593Z,18.53
2023-02-04T17:45:28.538Z,18.00
2023-02-04T17:47:55.313Z,17.90
2023-02-04T17:50:22.030Z,19.30
2023-02-04T17:52:48.790Z,17.67
2023-02-04T17:55:30.647Z,18.43
2023-02-04T17:58:02.096Z,23.27
2023-02-04T18:00:31.539Z,18.00
2023-02-04T18:02:58.829Z,25.37
2023-02-04T18:05:28.590Z,22.93
2023-02-04T18:08:19.650Z,21.03
2023-02-04T18:10:57.061Z,24.87
2023-02-04T18:13:34.037Z,27.00
2023-02-04T18:16:19.140Z,29.90
2023-02-04T18:18:45.878Z,21.30
2023-02-04T18:21:21.001Z,23.40
2023-02-04T18:23:53.609Z,30.20
2023-02-04T18:26:25.712Z,23.87
2023-02-04T18:28:52.867Z,20.60
2023-02-04T18:31:25.414Z,18.17
2023-02-04T18:33:52.377Z,19.47
2023-02-04T18:36:20.626Z,14.57
2023-02-04T18:38:47.424Z,22.53
2023-02-04T18:41:22.879Z,25.40
2023-02-04T18:44:02.199Z,22.97
2023-02-04T18:46:45.939Z,22.93
2023-02-04T18:49:33.269Z,20.23
2023-02-04T18:52:14.999Z,23.90
2023-02-04T18:54:53.465Z,16.97
2023-02-04T18:57:34.536Z,22.07
2023-02-04T19:00:10.448Z,19.20
2023-02-04T19:02:49.381Z,19.17
2023-02-04T19:05:42.383Z,20.07
2023-02-04T19:08:25.848Z,18.77
2023-02-04T19:10:58.835Z,26.10
2023-02-04T19:13:42.173Z,24.03
2023-02-04T19:16:26.510Z,22.10
2023-02-04T19:18:54.793Z,25.60
2023-02-04T19:21:27.469Z,26.47
2023-02-04T19:24:21.032Z,23.80
2023-02-04T19:27:01.759Z,29.43
2023-02-04T19:29:42.440Z,23.93
2023-02-04T19:32:27.837Z,28.40
2023-02-04T19:35:00.660Z,25.83
2023-02-04T19:37:39.797Z,30.60
2023-02-04T19:40:29.164Z,32.83
2023-02-04T19:43:08.335Z,25.00
2023-02-04T19:45:35.338Z,34.70
2023-02-04T19:48:14.582Z,32.70
2023-02-04T19:50:41.354Z,27.77
2023-02-04T19:53:27.063Z,26.60
2023-02-04T19:55:54.635Z,34.07
2023-02-04T19:58:36.697Z,28.00
2023-02-04T20:01:18.342Z,28.73
2023-02-04T20:03:47.713Z,24.00
2023-02-04T20:06:43.590Z,30.40
2023-02-04T20:09:29.103Z,24.37
2023-02-04T20:12:17.955Z,29.13
2023-02-04T20:14:56.587Z,24.93
2023-02-04T20:17:43.562Z,31.70
2023-02-04T20:20:21.073Z,25.83
2023-02-04T20:22:59.729Z,28.53
2023-02-04T20:25:48.003Z,27.07
2023-02-04T20:28:24.101Z,23.07
2023-02-04T20:30:52.117Z,27.80
2023-02-04T20:33:48.962Z,29.20
2023-02-04T20:36:25.039Z,21.43
2023-02-04T20:39:28.669Z,29.63
2023-02-04T20:42:17.458Z,22.13
2023-02-04T20:44:44.227Z,31.67
2023-02-04T20:47:25.208Z,32.57
2023-02-04T20:49:58.918Z,30.23
2023-02-04T20:52:40.794Z,27.67
2023-02-04T20:55:26.572Z,20.63
2023-02-04T20:58:11.827Z,18.07
2023-02-04T21:00:40.324Z,20.47
2023-02-04T21:03:27.504Z,21.17
2023-02-04T21:05:59.902Z,19.80
2023-02-04T21:08:43.844Z,19.87
2023-02-04T21:11:11.202Z,21.10
2023-02-04T21:13:38.719Z,21.00
2023-02-04T21:16:06.505Z,24.63
2023-02-04T21:18:36.163Z,18.33
2023-02-04T21:21:07.238Z,21.37
2023-02-04T21:23:36.701Z,20.37
2023-02-04T21:26:05.036Z,18.87
2023-02-04T21:28:32.894Z,15.30
2023-02-04T21:31:01.006Z,19.77
2023-02-04T21:33:27.961Z,14.53
2023-02-04T21:35:54.721Z,15.10
2023-02-04T21:38:21.518Z,10.87
2023-02-04T21:40:48.502Z,15.13
2023-02-04T21:43:15.389Z,13.37
2023-02-04T21:45:42.286Z,11.03
2023-02-04T21:48:09.081Z,21.17
2023-02-04T21:50:38.402Z,12.60
2023-02-04T21:53:07.437Z,18.23
2023-02-04T21:55:35.235Z,16.93
2023-02-04T21:58:02.803Z,22.83
2023-02-04T22:00:29.987Z,16.67
2023-02-04T22:02:56.868Z,17.67
2023-02-04T22:05:24.757Z,16.30
2023-02-04T22:07:52.206Z,16.50
2023-02-04T22:10:25.649Z,18.80
2023-02-04T22:12:52.991Z,20.13
2023-02-04T22:15:21.497Z,20.30
2023-02-04T22:17:49.537Z,13.80
2023-02-04T22:20:17.552Z,21.43
2023-02-04T22:22:45.944Z,13.43
2023-02-04T22:25:15.946Z,16.10
2023-02-04T22:27:43.172Z,19.87
2023-02-04T22:30:12.884Z,17.37
2023-02-04T22:32:40.392Z,22.27
2023-02-04T22:35:10.265Z,21.03
2023-02-04T22:37:41.754Z,23.43
2023-02-04T22:40:11.254Z,20.90
2023-02-04T22:42:38.395Z,20.90
2023-02-04T22:45:05.777Z,25.03
2023-02-04T22:47:32.587Z,23.33
2023-02-04T22:49:59.377Z,18.20
2023-02-04T22:52:26.188Z,19.40
2023-02-04T22:54:53.349Z,14.60
2023-02-04T22:57:20.151Z,24.00
2023-02-04T22:59:47.023Z,22.63
2023-02-04T23:02:13.939Z,24.83
2023-02-04T23:04:43.674Z,24.60
2023-02-04T23:07:12.726Z,23.57
2023-02-04T23:09:39.871Z,21.03
2023-02-04T23:12:13.143Z,25.20
2023-02-04T23:14:46.142Z,27.13
2023-02-04T23:17:15.413Z,26.17
2023-02-04T23:19:42.697Z,26.50
2023-02-04T23:22:12.804Z,23.83
2023-02-04T23:24:40.987Z,28.07
2023-02-04T23:27:10.772Z,23.97
2023-02-04T23:29:39.387Z,29.47
2023-02-04T23:32:06.569Z,26.77
2023-02-04T23:34:34.211Z,25.00
2023-02-04T23:37:01.216Z,27.83
2023-02-04T23:39:28.104Z,23.33
2023-02-04T23:41:54.953Z,28.87
2023-02-04T23:44:21.735Z,27.80
2023-02-04T23:46:48.598Z,27.80
2023-02-04T23:49:15.650Z,25.27
2023-02-04T23:51:42.951Z,28.93
2023-02-04T23:54:10.194Z,27.67
2023-02-04T23:56:36.929Z,27.30
2023-02-04T23:59:04.301Z,19.17
